»·PEaware :: SKW5911 KSFO-KRNO

SKW5911 :: KSFO-KRNO

FLIGHT INFORMATION

Flight Status: Arrived
Operator:
SkyWest Airlines
More flights by this operator :: More flights under this callsign
Pilot: Anonymous 16342 (16342)
Aircraft: CANADAIR CL-600 CRJ-700
(CRJ7)
More flights by this aircraft type
Origin: KSFO San Francisco Intl
United States
Destination: KRNO Reno/Tahoe Intl
United States
More flights between these airports :: More routes between these airports
Route: TRUKN2 ORRCA HOBOA WALAR
File this flight plan on PilotEdge
Remarks:
Altitude:
(Current/Filed)
23,000ft
Speed:
(Current/Filed)
271kts
Departed: 05-Sep-19 03:29 PM
Arrived: 05-Sep-19 04:08 PM
Distance/Time
Traveled:
166nm/0:39
Distance/Time
To Go:
Arrived

Flight Plot

Page will automatically refresh every two minutes.

Flight plan parsing failed; only flown route is shown


Map Options




Map Legend


Flown Route
Filed Route
Departure Airport
Arrival Airport
Navaid (VOR, NDB)
Fix

Horizontal Profiles

Position Reports

Time Latitude Longitude Heading Altitude Ground
Speed
05-Sep-19 15:10 37.620457 -122.389946 28 20ft 0kts
05-Sep-19 15:11 37.620457 -122.389946 28 20ft 0kts
05-Sep-19 15:12 37.620457 -122.389946 28 20ft 0kts
05-Sep-19 15:13 37.620457 -122.389946 28 20ft 0kts
05-Sep-19 15:14 37.620457 -122.389946 28 20ft 0kts
05-Sep-19 15:15 37.620227 -122.390105 28 20ft 2kts
05-Sep-19 15:16 37.619676 -122.390488 28 20ft 0kts
05-Sep-19 15:17 37.619678 -122.390487 28 20ft 0kts
05-Sep-19 15:18 37.619921 -122.390986 297 20ft 2kts
05-Sep-19 15:19 37.621117 -122.391804 24 20ft 9kts
05-Sep-19 15:20 37.622547 -122.388974 114 20ft 11kts
05-Sep-19 15:21 37.621614 -122.386647 117 20ft 8kts
05-Sep-19 15:22 37.619877 -122.382627 118 20ft 17kts
05-Sep-19 15:23 37.618349 -122.379017 118 20ft 6kts
05-Sep-19 15:24 37.617373 -122.375678 109 20ft 13kts
05-Sep-19 15:25 37.615307 -122.370552 119 20ft 15kts
05-Sep-19 15:26 37.613169 -122.366422 124 20ft 21kts
05-Sep-19 15:27 37.610747 -122.360789 117 20ft 15kts
05-Sep-19 15:28 37.613776 -122.363195 295 20ft 72kts
05-Sep-19 15:29 37.637075 -122.406810 311 2586ft 195kts
05-Sep-19 15:30 37.673162 -122.379868 96 6425ft 217kts
05-Sep-19 15:31 37.670371 -122.303531 85 9227ft 242kts
05-Sep-19 15:32 37.711841 -122.223803 51 11091ft 295kts
05-Sep-19 15:33 37.780113 -122.157601 36 13440ft 318kts
05-Sep-19 15:34 37.853604 -122.091410 38 15754ft 331kts
05-Sep-19 15:35 37.930191 -122.022506 39 17935ft 343kts
05-Sep-19 15:36 38.008451 -121.950457 38 19837ft 353kts
05-Sep-19 15:37 38.089871 -121.876237 38 21664ft 364kts
05-Sep-19 15:39 38.173668 -121.799716 38 22924ft 389kts
05-Sep-19 15:40 38.269201 -121.712271 37 23002ft 456kts
05-Sep-19 15:41 38.372072 -121.617548 38 22983ft 442kts
05-Sep-19 15:42 38.466254 -121.527032 45 22988ft 406kts
05-Sep-19 15:43 38.540338 -121.426861 48 22990ft 379kts
05-Sep-19 15:44 38.615075 -121.332928 48 22995ft 384kts
05-Sep-19 15:45 38.692702 -121.233129 48 23000ft 405kts
05-Sep-19 15:46 38.774428 -121.127992 48 22728ft 434kts
05-Sep-19 15:47 38.857552 -121.020589 48 21727ft 399kts
05-Sep-19 15:48 38.932326 -120.923508 48 20712ft 368kts
05-Sep-19 15:49 39.002602 -120.832088 49 19703ft 350kts
05-Sep-19 15:50 39.069771 -120.744607 48 18698ft 338kts
05-Sep-19 15:51 39.135011 -120.659317 48 17670ft 332kts
05-Sep-19 15:52 39.199300 -120.575134 48 16677ft 330kts
05-Sep-19 15:53 39.264436 -120.489128 49 15932ft 371kts
05-Sep-19 15:54 39.341759 -120.397196 40 16846ft 360kts
05-Sep-19 15:55 39.431101 -120.337704 16 16744ft 384kts
05-Sep-19 15:56 39.535438 -120.292464 17 16432ft 410kts
05-Sep-19 15:57 39.643423 -120.245398 19 15093ft 389kts
05-Sep-19 15:58 39.706391 -120.150567 72 12516ft 320kts
05-Sep-19 15:58 39.718887 -120.067967 83 11764ft 257kts
05-Sep-19 16:00 39.733716 -119.964117 83 10187ft 238kts
05-Sep-19 16:01 39.744709 -119.881511 83 9220ft 215kts
05-Sep-19 16:01 39.739555 -119.828288 144 9194ft 169kts
05-Sep-19 16:02 39.697715 -119.786782 143 8461ft 219kts
05-Sep-19 16:04 39.632721 -119.755745 192 7417ft 198kts
05-Sep-19 16:04 39.593009 -119.767049 184 6589ft 161kts
05-Sep-19 16:05 39.550020 -119.768772 180 5393ft 149kts
05-Sep-19 16:07 39.507504 -119.769352 177 4422ft 104kts
05-Sep-19 16:07 39.497841 -119.770120 271 4422ft 3kts
05-Sep-19 16:08 39.500245 -119.771602 359 4422ft 18kts
05-Sep-19 16:09 39.504535 -119.771594 0 4422ft 6kts
05-Sep-19 16:10 39.506459 -119.773434 270 4422ft 11kts
05-Sep-19 16:11 39.506986 -119.774353 358 4422ft 0kts
05-Sep-19 16:12 39.506986 -119.774353 358 4422ft 0kts

Navigation Log

Ident Type
Flight plan parsing failed, navigation log unavailable